Time;durP1;ratioP1;P1;durP2;ratioP2;P2;SDS_P1;SDS_P2;PMS_P1;PMS_P2;Temp;Humidity;BMP_temperature;BMP_pressure;BME280_temperature;BME280_humidity;BME280_pressure;Samples;Min_cycle;Max_cycle;Signal;HPM_P1;HPM_P2
2021/04/21 00:01:38;;;;;;;11.45;7.72;;;;;;;8.51;56.88;93825.03;5006573;28;20029;-68
2021/04/21 00:04:06;;;;;;;16.08;7.95;;;;;;;8.47;57.30;93827.53;5009288;28;20343;-68
2021/04/21 00:06:33;;;;;;;11.60;7.32;;;;;;;8.47;57.03;93827.53;4994649;28;20080;-68
2021/04/21 00:09:00;;;;;;;15.25;8.57;;;;;;;8.46;57.53;93820.63;4991591;28;20543;-68
2021/04/21 00:11:26;;;;;;;14.55;8.77;;;;;;;8.47;57.76;93830.19;5008042;28;20037;-68
2021/04/21 00:13:51;;;;;;;15.20;8.85;;;;;;;8.46;58.20;93825.16;5009346;28;20026;-68
2021/04/21 00:16:18;;;;;;;17.65;10.20;;;;;;;8.44;58.37;93836.84;5009108;28;20049;-68
2021/04/21 00:18:45;;;;;;;19.52;11.65;;;;;;;8.41;57.78;93821.53;5009518;28;20319;-68
2021/04/21 00:21:12;;;;;;;17.42;10.93;;;;;;;8.45;57.79;93829.69;5007880;28;20034;-68
2021/04/21 00:23:39;;;;;;;18.73;11.30;;;;;;;8.46;57.27;93823.28;5009243;28;20030;-68
2021/04/21 00:26:10;;;;;;;21.45;11.73;;;;;;;8.46;57.57;93817.97;5008070;28;20025;-68
2021/04/21 00:28:37;;;;;;;18.13;10.25;;;;;;;8.47;57.96;93824.06;5008476;28;20064;-68
2021/04/21 00:31:05;;;;;;;22.33;11.88;;;;;;;8.45;57.98;93821.72;4993417;28;20508;-68
2021/04/21 00:33:33;;;;;;;28.45;12.80;;;;;;;8.44;57.42;93820.13;4993576;28;20030;-67
2021/04/21 00:36:01;;;;;;;28.83;14.18;;;;;;;8.43;57.62;93821.25;4993119;28;20026;-67
2021/04/21 00:38:27;;;;;;;24.75;13.25;;;;;;;8.43;57.92;93823.91;4993069;28;21690;-68
2021/04/21 00:41:11;;;;;;;24.58;12.88;;;;;;;8.42;57.82;93827.63;4993157;28;20111;-69
2021/04/21 00:43:54;;;;;;;22.20;12.48;;;;;;;8.42;57.58;93832.94;4991187;28;20034;-68
2021/04/21 00:46:28;;;;;;;21.55;12.10;;;;;;;8.37;57.49;93820.53;4993085;28;20489;-68
2021/04/21 00:48:54;;;;;;;23.15;12.20;;;;;;;8.38;57.61;93821.31;4993030;28;20105;-68
2021/04/21 00:51:27;;;;;;;27.95;12.75;;;;;;;8.40;57.46;93825.22;4991713;28;20406;-68
2021/04/21 00:54:13;;;;;;;19.38;10.98;;;;;;;8.42;57.60;93832.94;4993160;28;20105;-68
2021/04/21 00:56:49;;;;;;;21.02;11.70;;;;;;;8.43;57.57;93824.69;4991675;28;20121;-68
2021/04/21 00:59:56;;;;;;;16.42;9.98;;;;;;;8.42;57.25;93827.63;4992641;28;20034;-68
2021/04/21 01:02:25;;;;;;;19.25;11.70;;;;;;;8.44;57.42;93836.84;4993477;28;20433;-68
2021/04/21 01:04:52;;;;;;;18.95;10.63;;;;;;;8.45;57.66;93827.03;5012269;28;20040;-67
2021/04/21 01:07:18;;;;;;;17.98;10.52;;;;;;;8.46;57.63;93830.47;5010608;28;20034;-69
2021/04/21 01:09:46;;;;;;;20.33;10.48;;;;;;;8.42;57.58;93833.72;4992701;28;20040;-67
2021/04/21 01:12:15;;;;;;;18.55;10.55;;;;;;;8.43;57.77;93823.91;4991129;28;20358;-67
2021/04/21 01:14:45;;;;;;;17.55;10.02;;;;;;;8.48;57.43;93836.28;4992006;28;20049;-68
2021/04/21 01:17:14;;;;;;;15.95;10.52;;;;;;;8.47;58.08;93830.19;4991539;28;20556;-68
2021/04/21 01:19:58;;;;;;;16.65;9.85;;;;;;;8.45;57.89;93824.38;4992426;28;20103;-68
2021/04/21 01:22:34;;;;;;;18.70;10.35;;;;;;;8.52;58.86;93823.97;4992449;28;20034;-68
2021/04/21 01:25:18;;;;;;;17.17;10.45;;;;;;;8.46;58.97;93820.63;4992357;28;20027;-67
2021/04/21 01:27:49;;;;;;;18.13;10.55;;;;;;;8.40;59.29;93819.91;4991115;28;20026;-68
2021/04/21 01:30:17;;;;;;;18.83;11.33;;;;;;;8.39;59.22;93821.00;4992439;28;20061;-68
2021/04/21 01:32:47;;;;;;;19.70;11.32;;;;;;;8.41;60.08;93821.53;4992507;28;20112;-68
2021/04/21 01:35:17;;;;;;;22.83;11.88;;;;;;;8.44;59.78;93825.44;4992219;28;20424;-68
2021/04/21 01:37:45;;;;;;;21.55;11.13;;;;;;;8.42;60.31;93827.63;4991957;28;20034;-68
2021/04/21 01:40:15;;;;;;;18.60;11.00;;;;;;;8.38;60.21;93824.75;4990769;28;20030;-68
2021/04/21 01:42:47;;;;;;;23.35;11.05;;;;;;;8.35;59.49;93821.94;4991934;28;20037;-68
2021/04/21 01:45:17;;;;;;;16.48;10.07;;;;;;;8.32;58.67;93825.16;4997424;28;20108;-68
2021/04/21 01:47:44;;;;;;;19.20;10.15;;;;;;;8.32;58.02;93819.84;5010049;28;20080;-68
2021/04/21 01:50:14;;;;;;;16.60;9.75;;;;;;;8.30;58.09;93830.00;5008726;28;20105;-68
2021/04/21 01:52:49;;;;;;;15.23;10.18;;;;;;;8.32;59.08;93828.59;4989373;28;20026;-68
2021/04/21 01:55:19;;;;;;;19.08;10.60;;;;;;;8.28;59.37;93838.25;4990562;28;20418;-68
2021/04/21 01:57:45;;;;;;;18.63;10.23;;;;;;;8.22;59.28;93834.94;5000798;28;20041;-68
2021/04/21 02:00:13;;;;;;;19.45;11.70;;;;;;;8.24;60.10;93827.47;5011421;28;20038;-68
2021/04/21 02:02:45;;;;;;;20.77;11.23;;;;;;;8.21;60.29;93830.69;5010191;28;20033;-68
2021/04/21 02:05:16;;;;;;;24.13;11.75;;;;;;;8.18;58.83;93839.28;5011254;28;20045;-67
2021/04/21 02:08:10;;;;;;;23.80;11.83;;;;;;;8.09;59.54;93838.38;5001653;28;20180;-68
2021/04/21 02:10:52;;;;;;;17.73;10.23;;;;;;;8.01;60.00;93836.44;4991479;28;20041;-67
2021/04/21 02:13:30;;;;;;;24.40;12.18;;;;;;;8.00;60.51;93837.53;4990468;28;20034;-68
2021/04/21 02:16:19;;;;;;;24.75;13.82;;;;;;;7.98;60.80;93839.69;4997845;28;20095;-67
2021/04/21 02:18:59;;;;;;;25.40;13.65;;;;;;;7.97;60.98;93838.09;5006957;28;20100;-68
2021/04/21 02:21:30;;;;;;;25.50;14.32;;;;;;;7.97;61.48;93851.38;5011026;28;20022;-67
2021/04/21 02:24:25;;;;;;;19.60;11.43;;;;;;;7.93;61.62;93842.44;5011001;28;20098;-68
2021/04/21 02:27:08;;;;;;;18.23;10.15;;;;;;;7.94;60.82;93838.72;5010571;28;20034;-68
2021/04/21 02:29:50;;;;;;;18.55;10.18;;;;;;;7.95;60.96;93835.75;5009398;28;20028;-67
2021/04/21 02:32:20;;;;;;;17.50;10.07;;;;;;;7.95;61.04;93846.34;5004917;28;20117;-69
2021/04/21 02:35:08;;;;;;;16.52;10.73;;;;;;;7.96;61.36;93839.97;4989662;28;20026;-67
2021/04/21 02:37:45;;;;;;;18.85;10.50;;;;;;;8.03;61.77;93853.63;4991070;28;20026;-67
2021/04/21 02:40:16;;;;;;;19.73;11.40;;;;;;;8.01;61.32;93849.69;4999213;28;20074;-67
2021/04/21 02:42:56;;;;;;;19.85;11.65;;;;;;;7.97;61.45;93846.84;4988437;28;20540;-68
2021/04/21 02:45:35;;;;;;;20.88;11.75;;;;;;;7.98;60.75;93852.97;4989368;28;20014;-67
2021/04/21 02:48:13;;;;;;;23.35;11.73;;;;;;;7.99;60.15;93846.56;4990798;28;20095;-67
2021/04/21 02:50:44;;;;;;;18.42;11.75;;;;;;;7.97;60.70;93854.03;4990288;28;20030;-67
2021/04/21 02:53:20;;;;;;;20.55;12.23;;;;;;;7.98;60.71;93858.28;4990948;28;20053;-68
2021/04/21 02:56:20;;;;;;;22.20;11.93;;;;;;;8.00;61.18;93864.06;4989341;28;20105;-68
2021/04/21 02:59:28;;;;;;;16.90;9.38;;;;;;;7.95;60.27;93867.59;4989160;28;20482;-67
2021/04/21 03:02:01;;;;;;;16.75;9.57;;;;;;;7.83;60.04;93869.94;4979497;28;20129;-67
2021/04/21 03:04:32;;;;;;;17.83;9.63;;;;;;;7.86;59.98;93865.91;4990069;28;20064;-68
2021/04/21 03:07:00;;;;;;;13.02;8.93;;;;;;;7.84;59.74;93855.63;4990764;28;20018;-68
2021/04/21 03:09:46;;;;;;;18.70;9.15;;;;;;;7.80;59.63;93862.59;4990950;28;20528;-68
2021/04/21 03:12:16;;;;;;;19.80;9.63;;;;;;;7.77;59.97;93861.28;4990323;28;20054;-68
2021/04/21 03:14:46;;;;;;;21.10;11.07;;;;;;;7.79;60.29;93864.44;4990110;28;20046;-67
2021/04/21 03:17:12;;;;;;;25.75;10.55;;;;;;;7.79;60.80;93861.00;4990491;28;20041;-67
2021/04/21 03:19:51;;;;;;;18.25;10.35;;;;;;;7.82;60.82;93863.88;4990513;28;20443;-68
2021/04/21 03:22:20;;;;;;;17.20;10.35;;;;;;;7.85;61.15;93859.84;4989057;28;20553;-67
2021/04/21 03:24:50;;;;;;;21.98;11.63;;;;;;;7.88;60.93;93861.13;4988952;28;20061;-68
2021/04/21 03:27:22;;;;;;;22.08;10.15;;;;;;;7.95;61.58;93861.50;4990430;28;20103;-68
2021/04/21 03:29:50;;;;;;;18.63;11.00;;;;;;;7.94;61.19;93854.63;4990567;28;20112;-68
2021/04/21 03:32:23;;;;;;;17.55;10.60;;;;;;;7.92;60.35;93852.28;4990194;28;20065;-67
2021/04/21 03:34:50;;;;;;;25.20;11.75;;;;;;;7.94;59.80;93865.25;4990033;28;20030;-68
2021/04/21 03:37:40;;;;;;;26.42;12.98;;;;;;;7.93;60.68;93868.97;4988849;28;20076;-67
2021/04/21 03:40:06;;;;;;;25.77;13.40;;;;;;;7.90;60.54;93878.31;4990301;28;20482;-67
2021/04/21 03:42:33;;;;;;;23.40;12.25;;;;;;;7.83;60.57;93875.25;4988942;28;20117;-67
2021/04/21 03:45:00;;;;;;;26.65;12.60;;;;;;;7.87;60.86;93878.13;4994759;28;20124;-68
2021/04/21 03:47:28;;;;;;;25.48;11.23;;;;;;;7.92;61.05;93875.38;4995623;28;20046;-67
2021/04/21 03:49:55;;;;;;;22.77;10.75;;;;;;;7.93;60.39;93876.94;4990349;28;20058;-68
2021/04/21 03:52:24;;;;;;;23.40;11.77;;;;;;;7.93;60.55;93879.59;4988780;28;20060;-68
2021/04/21 03:54:51;;;;;;;29.15;10.25;;;;;;;7.98;59.45;93890.91;4989821;28;20057;-67
2021/04/21 03:57:19;;;;;;;22.10;10.18;;;;;;;7.94;59.23;93881.97;4989880;28;20038;-68
2021/04/21 03:59:47;;;;;;;20.15;10.60;;;;;;;7.96;60.24;93886.97;4996206;28;20503;-68
2021/04/21 04:02:14;;;;;;;16.73;9.25;;;;;;;7.97;59.66;93884.00;5011838;28;20026;-67
2021/04/21 04:04:47;;;;;;;17.52;9.27;;;;;;;7.94;59.31;93886.50;5006623;28;20027;-68
2021/04/21 04:07:14;;;;;;;19.23;9.23;;;;;;;7.98;59.07;93892.78;4993470;28;20030;-68
2021/04/21 04:09:45;;;;;;;15.27;8.98;;;;;;;7.98;59.35;93898.09;4992582;28;20379;-68
2021/04/21 04:12:12;;;;;;;17.77;10.15;;;;;;;8.01;59.06;93892.16;4993979;28;20442;-68
2021/04/21 04:14:39;;;;;;;14.52;9.52;;;;;;;8.10;59.15;93890.41;4994682;28;20508;-68
2021/04/21 04:17:06;;;;;;;14.52;8.57;;;;;;;8.11;59.17;93899.16;5011958;28;20057;-68
2021/04/21 04:19:35;;;;;;;16.98;8.75;;;;;;;8.16;58.51;93905.16;5013291;28;20026;-68
2021/04/21 04:22:16;;;;;;;17.40;9.40;;;;;;;8.23;58.22;93902.09;5013462;28;20037;-67
2021/04/21 04:24:42;;;;;;;14.20;8.82;;;;;;;8.29;57.56;93903.56;5005861;28;20039;-68
2021/04/21 04:27:15;;;;;;;14.70;7.80;;;;;;;8.32;57.01;93896.88;4993563;28;20049;-68
2021/04/21 04:29:42;;;;;;;15.77;8.80;;;;;;;8.29;57.79;93908.88;4993248;28;20026;-68
2021/04/21 04:32:11;;;;;;;22.70;9.95;;;;;;;8.35;57.47;93917.53;5007877;28;20033;-68
2021/04/21 04:34:37;;;;;;;19.33;9.77;;;;;;;8.37;57.91;93916.13;5012775;28;20104;-68
2021/04/21 04:37:03;;;;;;;14.77;8.85;;;;;;;8.41;57.61;93919.03;4996794;28;20522;-68
2021/04/21 04:39:29;;;;;;;21.23;8.68;;;;;;;8.39;57.85;93915.84;4991855;28;20041;-68
2021/04/21 04:41:55;;;;;;;21.73;10.45;;;;;;;8.33;58.21;93922.34;4993160;28;20113;-67
2021/04/21 04:44:21;;;;;;;18.85;9.27;;;;;;;8.30;58.56;93925.59;4993119;28;20550;-68
2021/04/21 04:46:52;;;;;;;16.25;9.70;;;;;;;8.24;58.92;93920.38;5009026;28;20025;-67
2021/04/21 04:49:20;;;;;;;20.77;9.52;;;;;;;8.27;59.04;93940.25;4991155;28;20458;-67
2021/04/21 04:51:47;;;;;;;23.77;10.00;;;;;;;8.25;59.51;93934.44;4992868;28;20038;-68
2021/04/21 04:54:14;;;;;;;23.42;10.20;;;;;;;8.17;59.54;93938.56;4993102;28;20037;-68
2021/04/21 04:56:43;;;;;;;18.27;9.55;;;;;;;8.16;59.94;93939.66;4991064;28;20062;-68
2021/04/21 04:59:09;;;;;;;22.23;10.80;;;;;;;8.05;60.01;93935.63;4991426;28;20064;-68
2021/04/21 05:01:46;;;;;;;19.48;10.23;;;;;;;7.94;60.93;93950.19;4991601;28;20030;-68
2021/04/21 05:04:14;;;;;;;29.80;10.43;;;;;;;7.82;61.39;93948.78;4992854;28;20027;-67
2021/04/21 05:06:53;;;;;;;20.73;9.88;;;;;;;7.84;61.37;93945.84;4992635;28;20022;-68
2021/04/21 05:09:21;;;;;;;19.02;8.77;;;;;;;7.87;61.25;93949.75;5011533;28;20070;-68
2021/04/21 05:11:49;;;;;;;17.00;9.00;;;;;;;7.90;60.71;93943.88;5010220;28;20026;-68
2021/04/21 05:14:17;;;;;;;22.98;9.82;;;;;;;7.93;60.92;93944.06;4991135;28;20046;-67
2021/04/21 05:16:55;;;;;;;20.23;9.40;;;;;;;8.01;60.74;93959.31;4990702;28;20525;-68
2021/04/21 05:19:39;;;;;;;13.88;7.45;;;;;;;7.95;60.95;93957.84;4991334;28;20038;-67
2021/04/21 05:22:42;;;;;;;15.45;7.72;;;;;;;7.89;61.32;93958.22;4991460;28;20105;-68
2021/04/21 05:25:13;;;;;;;;;;;;;;;7.91;60.80;93950.75;5011599;28;20029;-69
2021/04/21 05:28:00;;;;;;;19.38;8.93;;;;;;;7.97;61.12;93966.28;5011034;28;19956;-69
2021/04/21 05:30:50;;;;;;;19.35;9.20;;;;;;;8.09;60.92;93963.16;5011897;28;20478;-68
2021/04/21 05:33:46;;;;;;;17.42;8.77;;;;;;;8.28;60.66;93967.59;4992292;28;20061;-71
2021/04/21 05:36:30;;;;;;;17.00;8.88;;;;;;;8.43;60.64;93960.13;4990547;28;20113;-70
2021/04/21 05:39:26;;;;;;;19.50;9.00;;;;;;;8.58;60.61;93969.66;4992127;28;20093;-70
2021/04/21 05:42:15;;;;;;;18.20;9.75;;;;;;;8.66;59.50;93968.19;4990680;28;20030;-69
2021/04/21 05:45:11;;;;;;;28.92;10.63;;;;;;;8.79;59.64;93969.22;4991847;28;20049;-70
2021/04/21 05:47:51;;;;;;;25.77;10.50;;;;;;;8.85;59.71;93978.66;4991813;28;20030;-68
2021/04/21 05:50:20;;;;;;;25.63;12.70;;;;;;;8.96;60.23;93980.03;4990572;28;20042;-68
2021/04/21 05:53:07;;;;;;;28.95;13.50;;;;;;;9.17;59.96;93983.00;5010654;28;20048;-68
2021/04/21 05:55:32;;;;;;;28.15;15.30;;;;;;;9.31;59.47;93980.31;5011094;28;20064;-68
2021/04/21 05:58:17;;;;;;;24.85;13.50;;;;;;;9.50;59.24;93971.38;5009569;28;20061;-68
2021/04/21 06:01:15;;;;;;;35.80;13.45;;;;;;;9.61;58.58;93972.69;5009469;28;20030;-67
2021/04/21 06:03:44;;;;;;;23.35;11.93;;;;;;;9.72;58.28;93982.00;5009422;28;20422;-68
2021/04/21 06:06:10;;;;;;;24.92;12.77;;;;;;;9.83;57.77;93982.50;5007939;28;20474;-67
2021/04/21 06:08:35;;;;;;;22.13;12.15;;;;;;;9.97;57.38;93990.44;4989933;28;20037;-67
2021/04/21 06:11:01;;;;;;;29.27;12.60;;;;;;;10.08;56.61;93986.44;4990070;28;20478;-67
2021/04/21 06:13:32;;;;;;;25.10;11.50;;;;;;;10.20;56.20;93988.53;4991660;28;20022;-68
2021/04/21 06:15:58;;;;;;;27.15;10.82;;;;;;;10.23;55.27;93987.88;4993336;28;20442;-67
2021/04/21 06:18:24;;;;;;;19.73;11.13;;;;;;;10.17;55.46;93992.56;5005313;28;20124;-68
2021/04/21 06:20:50;;;;;;;23.80;10.55;;;;;;;10.20;54.96;93999.19;4993014;28;20541;-67
2021/04/21 06:23:23;;;;;;;20.60;11.27;;;;;;;10.22;54.97;93999.66;5009211;28;20512;-68
2021/04/21 06:26:00;;;;;;;20.40;10.30;;;;;;;10.20;54.81;93997.28;5009758;28;20018;-67
2021/04/21 06:28:26;;;;;;;23.48;10.40;;;;;;;10.09;54.62;94000.53;5010269;28;20029;-68
2021/04/21 06:31:12;;;;;;;22.60;10.43;;;;;;;10.06;55.05;93996.59;5010171;28;20473;-68
2021/04/21 06:33:45;;;;;;;18.77;10.48;;;;;;;10.07;54.99;94002.69;5010497;28;20466;-68
2021/04/21 06:36:13;;;;;;;20.15;10.40;;;;;;;10.11;55.86;93993.00;5008893;28;20029;-68
2021/04/21 06:38:39;;;;;;;24.48;10.40;;;;;;;10.17;56.11;93992.56;5008812;28;20485;-69
2021/04/21 06:41:06;;;;;;;19.83;9.85;;;;;;;10.38;54.49;93997.38;4989446;28;20026;-68
2021/04/21 06:43:36;;;;;;;23.98;9.52;;;;;;;10.51;54.46;93993.06;5000826;28;20493;-68
2021/04/21 06:46:07;;;;;;;16.92;9.73;;;;;;;10.73;53.87;93997.50;5009208;28;20022;-68
2021/04/21 06:48:36;;;;;;;26.23;9.75;;;;;;;10.93;53.43;93991.59;4990897;28;20019;-69
2021/04/21 06:51:09;;;;;;;16.80;8.25;;;;;;;10.96;52.47;93990.16;4993083;28;20018;-69
2021/04/21 06:53:35;;;;;;;14.43;8.85;;;;;;;11.09;52.09;93997.22;4994959;28;20080;-68
2021/04/21 06:56:01;;;;;;;21.35;8.98;;;;;;;11.06;52.37;93994.44;4988749;28;20508;-68
2021/04/21 06:58:29;;;;;;;14.18;7.13;;;;;;;10.90;51.27;93999.41;4989065;28;20049;-69
2021/04/21 07:00:54;;;;;;;14.18;7.60;;;;;;;11.01;50.65;93996.16;4988157;28;20030;-69
2021/04/21 07:03:21;;;;;;;17.90;7.80;;;;;;;11.03;51.81;94003.81;5009382;28;20366;-68
2021/04/21 07:05:48;;;;;;;23.80;8.50;;;;;;;11.11;51.58;94004.94;5009949;28;20209;-68
2021/04/21 07:08:27;;;;;;;12.25;6.80;;;;;;;11.13;50.12;93997.41;5009097;28;20026;-70
2021/04/21 07:10:55;;;;;;;17.20;8.13;;;;;;;11.31;50.83;93995.53;4990313;28;20029;-70
2021/04/21 07:13:41;;;;;;;19.63;7.28;;;;;;;11.48;49.87;93998.22;4988726;28;20394;-70
2021/04/21 07:16:13;;;;;;;15.38;6.95;;;;;;;11.66;49.00;94006.97;4997728;28;20037;-70
2021/04/21 07:18:39;;;;;;;;;;;;;;;11.73;48.30;94001.94;5010003;28;20026;-70
2021/04/21 07:21:06;;;;;;;13.48;6.13;;;;;;;11.76;46.90;94009.31;5009892;28;19929;-70
2021/04/21 07:23:36;;;;;;;23.45;6.50;;;;;;;11.72;48.13;94005.72;5008019;28;20021;-69
2021/04/21 07:26:02;;;;;;;10.38;5.45;;;;;;;11.65;47.82;94002.75;4993307;28;20034;-68
2021/04/21 07:28:28;;;;;;;10.15;5.20;;;;;;;11.76;47.38;94001.31;4989794;28;20041;-70
2021/04/21 07:30:54;;;;;;;13.82;4.97;;;;;;;11.74;45.63;94006.19;4995394;28;20084;-70
2021/04/21 07:33:37;;;;;;;9.38;4.38;;;;;;;11.67;46.45;94008.56;5007647;28;20037;-67
2021/04/21 07:36:12;;;;;;;19.90;5.40;;;;;;;11.63;46.76;94010.28;4994884;28;20038;-68
2021/04/21 07:38:44;;;;;;;10.45;4.30;;;;;;;11.61;46.40;94012.50;5003253;28;20096;-69
2021/04/21 07:41:11;;;;;;;13.73;4.57;;;;;;;11.71;45.22;94014.84;5008121;28;20401;-68
2021/04/21 07:43:46;;;;;;;9.95;4.93;;;;;;;11.61;46.35;94009.81;5008910;28;20029;-69
2021/04/21 07:46:30;;;;;;;20.77;7.13;;;;;;;11.49;46.64;94010.44;5006719;28;20045;-67
2021/04/21 07:48:56;;;;;;;9.52;3.78;;;;;;;11.53;44.86;94018.63;4988710;28;20072;-68
2021/04/21 07:51:24;;;;;;;8.30;4.30;;;;;;;11.44;45.91;94018.63;4988640;28;20034;-67
2021/04/21 07:54:16;;;;;;;4.15;3.00;;;;;;;11.38;43.59;94025.22;4989805;28;20120;-68
2021/04/21 07:56:56;;;;;;;5.32;3.05;;;;;;;11.35;43.37;94023.94;4989368;28;20026;-68
2021/04/21 07:59:25;;;;;;;6.30;3.53;;;;;;;11.17;45.09;94017.81;5008257;28;20489;-67
2021/04/21 08:01:52;;;;;;;4.25;3.05;;;;;;;11.19;45.08;94017.50;5007960;28;20412;-68
2021/04/21 08:04:18;;;;;;;6.97;3.50;;;;;;;11.12;45.19;94017.19;5008176;28;20386;-67
2021/04/21 08:06:44;;;;;;;6.40;3.45;;;;;;;11.10;44.83;94014.81;5007484;28;20080;-68
2021/04/21 08:09:10;;;;;;;13.32;3.83;;;;;;;11.12;45.47;94011.84;4989919;28;20096;-67
2021/04/21 08:11:35;;;;;;;6.63;3.92;;;;;;;11.14;45.80;94020.31;4989879;28;20030;-67
2021/04/21 08:14:01;;;;;;;15.10;3.85;;;;;;;11.10;47.04;94014.81;4988258;28;20122;-67
2021/04/21 08:16:27;;;;;;;8.45;3.67;;;;;;;11.31;46.46;94025.66;4992247;28;20061;-67
2021/04/21 08:18:56;;;;;;;8.57;3.17;;;;;;;11.42;45.30;94018.94;5008916;28;20044;-66
2021/04/21 08:21:41;;;;;;;15.90;5.88;;;;;;;11.51;46.34;94021.59;5009368;28;20397;-66
2021/04/21 08:24:15;;;;;;;5.93;3.63;;;;;;;11.51;45.22;94018.16;5007999;28;20102;-67
2021/04/21 08:26:48;;;;;;;13.82;4.07;;;;;;;11.51;45.89;94026.16;5006289;28;20080;-67
2021/04/21 08:29:16;;;;;;;8.55;4.40;;;;;;;11.54;45.84;94014.84;5006353;28;20135;-67
2021/04/21 08:31:45;;;;;;;8.25;4.63;;;;;;;11.63;44.18;94020.97;5008041;28;20022;-67
2021/04/21 08:34:11;;;;;;;5.72;3.42;;;;;;;11.68;43.58;94020.00;5007976;28;20493;-68
2021/04/21 08:36:36;;;;;;;6.15;3.50;;;;;;;11.61;44.18;94025.84;5009151;28;20053;-68
2021/04/21 08:39:03;;;;;;;5.95;2.83;;;;;;;11.67;42.40;94029.91;5009281;28;20029;-67
2021/04/21 08:41:31;;;;;;;8.77;3.67;;;;;;;11.72;41.24;94021.72;5000924;28;20030;-66
2021/04/21 08:43:59;;;;;;;7.63;3.65;;;;;;;11.78;41.22;94012.44;5008883;28;20033;-67
2021/04/21 08:46:24;;;;;;;6.30;4.15;;;;;;;11.84;43.18;94013.88;4988166;28;20027;-67
2021/04/21 08:48:50;;;;;;;8.25;3.90;;;;;;;12.06;43.65;94003.34;4999253;28;20111;-67
2021/04/21 08:51:17;;;;;;;9.38;3.13;;;;;;;12.09;40.71;94000.81;5012224;28;20476;-68
2021/04/21 08:53:50;;;;;;;6.43;3.38;;;;;;;12.26;41.12;94008.00;5005690;28;20111;-68
2021/04/21 08:56:18;;;;;;;5.53;3.40;;;;;;;12.27;40.41;94012.22;5003293;28;20091;-68
2021/04/21 08:58:45;;;;;;;10.18;3.08;;;;;;;12.23;41.31;94004.06;5008411;28;20096;-67
2021/04/21 09:01:12;;;;;;;8.30;3.42;;;;;;;12.31;41.73;94001.69;4996805;28;20026;-67
2021/04/21 09:03:39;;;;;;;11.13;3.58;;;;;;;12.40;41.02;94003.22;4998180;28;20030;-68
2021/04/21 09:06:05;;;;;;;11.15;3.22;;;;;;;12.47;41.23;93994.69;5010849;28;20605;-67
2021/04/21 09:08:31;;;;;;;10.27;3.50;;;;;;;12.55;41.14;93987.75;5012017;28;20057;-69
2021/04/21 09:10:57;;;;;;;4.88;3.10;;;;;;;12.89;40.08;93973.41;5004158;28;20029;-69
2021/04/21 09:13:22;;;;;;;4.68;2.40;;;;;;;13.13;35.89;93974.69;4997249;28;20733;-70
2021/04/21 09:15:48;;;;;;;3.33;2.30;;;;;;;12.99;35.55;93981.06;4995043;28;20490;-70
2021/04/21 09:18:23;;;;;;;4.55;2.13;;;;;;;13.18;35.88;93982.50;5004441;28;20038;-71
2021/04/21 09:20:48;;;;;;;10.55;2.45;;;;;;;13.17;36.07;93984.41;5004655;28;20017;-71
2021/04/21 09:23:18;;;;;;;4.70;2.20;;;;;;;12.83;36.87;93985.41;4995134;28;20117;-68
2021/04/21 09:25:53;;;;;;;5.03;2.75;;;;;;;12.79;37.47;93979.16;4995662;28;20041;-70
2021/04/21 09:28:21;;;;;;;8.00;4.15;;;;;;;12.72;36.63;93973.50;5002251;28;20022;-70
2021/04/21 09:30:52;;;;;;;6.60;2.30;;;;;;;12.81;37.10;93975.03;4991274;28;20050;-70
2021/04/21 09:33:18;;;;;;;5.50;3.13;;;;;;;12.97;37.85;93977.94;5007208;28;20060;-69
2021/04/21 09:35:47;;;;;;;3.55;2.17;;;;;;;12.98;35.91;93982.16;5005510;28;20029;-68
2021/04/21 09:38:18;;;;;;;11.05;2.70;;;;;;;12.80;37.50;93994.06;5003884;28;20042;-70
2021/04/21 09:40:55;;;;;;;4.95;2.30;;;;;;;12.76;36.78;94001.16;4991752;28;20109;-71
2021/04/21 09:43:28;;;;;;;3.55;2.10;;;;;;;12.71;36.03;93990.66;4989122;28;20027;-70
2021/04/21 09:45:55;;;;;;;4.78;2.45;;;;;;;12.65;36.12;93998.88;4994509;28;20441;-69
2021/04/21 09:48:35;;;;;;;10.52;2.90;;;;;;;12.52;41.02;94020.50;5008013;28;20100;-70
2021/04/21 09:51:11;;;;;;;8.48;2.95;;;;;;;12.05;43.77;94042.63;5005694;28;20029;-69
2021/04/21 09:53:37;;;;;;;5.88;2.80;;;;;;;11.60;45.42;94033.06;5010891;28;20375;-70
2021/04/21 09:56:05;;;;;;;10.90;2.20;;;;;;;10.97;46.04;94037.06;5009749;28;20029;-69
2021/04/21 09:58:46;;;;;;;4.45;2.00;;;;;;;10.82;46.82;94033.75;5004589;28;20058;-71
2021/04/21 10:01:37;;;;;;;6.13;2.72;;;;;;;10.53;48.42;94038.84;5005673;28;20171;-68
2021/04/21 10:04:15;;;;;;;3.33;2.00;;;;;;;10.30;49.11;94035.41;4994115;28;20038;-69
2021/04/21 10:07:08;;;;;;;3.72;2.15;;;;;;;10.15;50.64;94044.56;5005163;28;20484;-68
2021/04/21 10:09:38;;;;;;;3.95;2.25;;;;;;;10.11;52.80;94032.97;5009033;28;20489;-68
2021/04/21 10:12:24;;;;;;;9.05;2.45;;;;;;;10.09;50.80;94035.91;4992865;28;20027;-68
2021/04/21 10:15:09;;;;;;;3.08;1.73;;;;;;;10.10;48.30;94032.19;4995143;28;20049;-68
2021/04/21 10:17:44;;;;;;;4.07;1.73;;;;;;;10.26;48.03;94035.25;5006018;28;20886;-68
2021/04/21 10:20:15;;;;;;;2.70;1.60;;;;;;;10.42;47.44;94043.63;4997651;28;20056;-68
2021/04/21 10:22:42;;;;;;;4.10;2.45;;;;;;;10.42;48.88;94038.28;5007476;28;20033;-68
2021/04/21 10:25:09;;;;;;;4.60;2.03;;;;;;;10.42;49.86;94035.63;4998614;28;20070;-68
2021/04/21 10:27:35;;;;;;;3.22;1.92;;;;;;;10.31;51.01;94034.34;5004311;28;20026;-68
2021/04/21 10:30:04;;;;;;;5.20;2.40;;;;;;;10.41;51.78;94032.19;5002891;28;20044;-68
2021/04/21 10:32:32;;;;;;;3.85;2.13;;;;;;;10.40;51.44;94027.97;5000688;28;20105;-68
2021/04/21 10:34:58;;;;;;;4.25;1.88;;;;;;;10.37;50.83;94028.56;4990884;28;20034;-68
2021/04/21 10:37:24;;;;;;;3.22;2.22;;;;;;;10.42;50.59;94019.66;4996348;28;20390;-68
2021/04/21 10:39:53;;;;;;;3.40;2.30;;;;;;;10.53;49.96;94026.28;5010205;28;20061;-68
2021/04/21 10:42:20;;;;;;;3.83;2.10;;;;;;;10.69;50.44;94026.66;5010584;28;20128;-68
2021/04/21 10:44:47;;;;;;;3.05;1.65;;;;;;;10.75;48.45;94030.75;5002579;28;20022;-68
2021/04/21 10:47:44;;;;;;;10.48;3.92;;;;;;;10.89;47.82;94030.63;5003275;28;20028;-68
2021/04/21 10:50:10;;;;;;;5.65;1.83;;;;;;;11.02;47.55;94032.38;4989521;28;20097;-69
2021/04/21 10:52:41;;;;;;;4.68;1.92;;;;;;;11.19;47.36;94028.16;4998802;28;20077;-69
2021/04/21 10:55:07;;;;;;;2.13;1.30;;;;;;;11.36;45.33;94028.19;4990229;28;20438;-69
2021/04/21 10:57:35;;;;;;;2.92;1.80;;;;;;;11.55;45.71;94040.44;4998262;28;20026;-69
2021/04/21 11:00:03;;;;;;;2.60;1.50;;;;;;;11.41;45.66;94027.25;4997426;28;20058;-69
2021/04/21 11:02:43;;;;;;;3.13;1.63;;;;;;;11.09;46.27;94017.78;4998935;28;20025;-68
2021/04/21 11:05:14;;;;;;;1.50;1.00;;;;;;;10.76;47.67;94029.66;5004782;28;20088;-67
2021/04/21 11:09:03;;;;;;;2.58;1.20;;;;;;;10.59;50.41;94033.06;5004888;28;20022;-69
2021/04/21 11:11:32;;;;;;;3.95;1.90;;;;;;;10.06;53.35;94041.88;4997035;28;20031;-71
2021/04/21 11:13:58;;;;;;;2.60;1.80;;;;;;;9.60;53.22;94005.72;4996640;28;20557;-67
2021/04/21 11:16:23;;;;;;;2.40;1.27;;;;;;;9.47;53.93;94025.97;5003085;28;20099;-67
2021/04/21 11:18:49;;;;;;;1.95;1.27;;;;;;;9.40;49.35;94017.59;5001352;28;20030;-67
2021/04/21 11:21:19;;;;;;;2.30;1.70;;;;;;;9.66;53.72;94017.03;5000201;28;20069;-67
2021/04/21 11:23:56;;;;;;;4.60;2.03;;;;;;;9.79;52.05;94022.28;4996109;28;20034;-67
2021/04/21 11:26:24;;;;;;;3.88;2.00;;;;;;;9.96;51.80;94015.50;5000368;28;20394;-67
2021/04/21 11:28:57;;;;;;;1.40;1.00;;;;;;;10.14;46.04;94014.50;5000251;28;20060;-67
2021/04/21 11:31:48;;;;;;;1.80;1.00;;;;;;;10.38;47.20;93998.19;4999141;28;20038;-66
2021/04/21 11:34:16;;;;;;;1.60;1.08;;;;;;;10.66;44.62;93997.16;5000377;28;20026;-68
2021/04/21 11:36:51;;;;;;;1.75;1.00;;;;;;;10.98;41.97;93999.44;4997288;28;20062;-69
2021/04/21 11:39:44;;;;;;;4.20;1.10;;;;;;;11.23;38.98;93989.09;4995282;28;20427;-68
2021/04/21 11:42:30;;;;;;;2.38;1.20;;;;;;;11.42;40.02;93994.13;4998115;28;20459;-68
2021/04/21 11:45:14;;;;;;;1.10;0.80;;;;;;;11.64;38.20;93993.16;4995848;28;20034;-68
2021/04/21 11:47:41;;;;;;;2.55;1.02;;;;;;;11.79;37.89;93976.66;4998172;28;20030;-67
2021/04/21 11:50:13;;;;;;;2.15;1.10;;;;;;;12.03;38.29;93996.75;4998940;28;20473;-68
2021/04/21 11:52:58;;;;;;;1.80;1.00;;;;;;;12.04;37.45;93999.09;5002929;28;20132;-66
2021/04/21 11:55:45;;;;;;;5.97;1.30;;;;;;;12.16;38.94;94000.31;5002833;28;20179;-68